Weather at Seattle–Tacoma International Airport

Public forecast

Using degrees Fahrenheit for public forecast. Weather courtesy of forecast.io.

Current aviation weather report (METAR) for Seattle–Tacoma International Airport

2022/12/08 11:53 (retrieved 23 minutes ago)

KSEA 081153Z 13004KT 9SM -RA OVC031 04/02 A2992 RMK AO2 RAB01E13B33 SLP138 P0001 60002 70003 T00440017 10056 20039 55009

Aviation forecast (TAF) for Seattle–Tacoma International Airport

2022/12/08 12:39 (retrieved 0 seconds ago)

TAF KSEA 081137Z 0812/0918 16010KT P6SM -RA OVC025 FM081600 19012KT 4SM -SHRA BR OVC018 FM082100 21012KT P6SM -SHRA BKN022 OVC030 FM090200 18007KT P6SM -SHRA BKN015 OVC025 FM091000 18008KT P6SM VCSH BKN012 OVC020